Time;durP1;ratioP1;P1;durP2;ratioP2;P2;SDS_P1;SDS_P2;PMS_P1;PMS_P2;Temp;Humidity;BMP_temperature;BMP_pressure;BME280_temperature;BME280_humidity;BME280_pressure;Samples;Min_cycle;Max_cycle;Signal;HPM_P1;HPM_P2
2023/12/11 00:01:56;;;;;;;10.27;7.10;;;-2.10;99.90;;;;;;4975638;28;20022;-76
2023/12/11 00:04:22;;;;;;;12.00;6.47;;;-1.70;99.90;;;;;;4958450;28;20026;-76
2023/12/11 00:06:47;;;;;;;12.88;7.18;;;-2.00;99.90;;;;;;4958069;28;20030;-76
2023/12/11 00:09:13;;;;;;;8.57;7.05;;;-2.00;99.90;;;;;;4974164;28;20493;-75
2023/12/11 00:11:39;;;;;;;9.00;5.78;;;-1.80;99.90;;;;;;4957876;28;20027;-75
2023/12/11 00:14:04;;;;;;;11.27;6.63;;;-2.00;99.90;;;;;;4957950;28;20097;-75
2023/12/11 00:16:30;;;;;;;11.13;6.47;;;-2.00;99.90;;;;;;4975233;28;20019;-76
2023/12/11 00:18:57;;;;;;;11.13;6.88;;;-2.10;99.90;;;;;;4975497;28;20061;-75
2023/12/11 00:21:22;;;;;;;12.93;6.63;;;-2.10;99.90;;;;;;4958085;28;20031;-74
2023/12/11 00:23:48;;;;;;;8.75;6.90;;;-1.90;99.90;;;;;;4958747;28;20097;-76
2023/12/11 00:26:14;;;;;;;10.85;6.25;;;-2.00;99.90;;;;;;4977155;28;20085;-77
2023/12/11 00:28:40;;;;;;;11.27;6.85;;;-2.10;99.90;;;;;;4976862;28;20061;-76
2023/12/11 00:31:08;;;;;;;10.50;7.50;;;-2.10;99.90;;;;;;4959338;28;20034;-75
2023/12/11 00:33:37;;;;;;;12.43;7.55;;;-2.10;99.90;;;;;;4958812;28;20142;-75
2023/12/11 00:36:03;;;;;;;12.18;7.75;;;-2.10;99.90;;;;;;4980015;28;20058;-76
2023/12/11 00:38:29;;;;;;;14.93;7.78;;;-2.10;99.90;;;;;;4965087;28;20034;-75
2023/12/11 00:40:54;;;;;;;10.90;7.30;;;-1.80;99.90;;;;;;4983315;28;20026;-76
2023/12/11 00:43:20;;;;;;;9.40;7.15;;;-2.00;99.90;;;;;;4983349;28;20031;-76
2023/12/11 00:45:46;;;;;;;7.00;5.40;;;-2.00;99.90;;;;;;4982187;28;20445;-77
2023/12/11 00:48:11;;;;;;;9.75;6.47;;;-2.00;99.90;;;;;;4964474;28;20397;-76
2023/12/11 00:50:37;;;;;;;9.95;5.95;;;-2.00;99.90;;;;;;4982748;28;20515;-76
2023/12/11 00:53:03;;;;;;;12.88;7.65;;;-2.00;99.90;;;;;;4984380;28;20027;-77
2023/12/11 00:55:28;;;;;;;9.75;6.40;;;-2.10;99.90;;;;;;4984135;28;20037;-77
2023/12/11 00:57:54;;;;;;;10.18;6.90;;;-2.00;99.90;;;;;;4981092;28;20022;-76
2023/12/11 01:00:20;;;;;;;8.82;6.20;;;-2.00;99.90;;;;;;4964648;28;20054;-76
2023/12/11 01:02:46;;;;;;;10.40;6.72;;;-2.00;99.90;;;;;;4981760;28;20106;-76
2023/12/11 01:05:12;;;;;;;10.80;7.00;;;-2.00;99.90;;;;;;4965976;28;20065;-76
2023/12/11 01:07:38;;;;;;;8.77;5.68;;;-2.00;99.90;;;;;;4966739;28;20388;-76
2023/12/11 01:10:04;;;;;;;8.68;6.13;;;-2.00;99.90;;;;;;4967573;28;20022;-76
2023/12/11 01:12:30;;;;;;;7.93;5.68;;;-2.10;99.90;;;;;;4968610;28;20040;-76
2023/12/11 01:14:55;;;;;;;8.82;6.15;;;-2.10;99.90;;;;;;4968404;28;20031;-76
2023/12/11 01:17:21;;;;;;;14.13;7.50;;;-2.10;99.90;;;;;;4965496;28;20031;-76
2023/12/11 01:19:47;;;;;;;11.77;7.05;;;-2.10;99.90;;;;;;4960214;28;20026;-75
2023/12/11 01:22:12;;;;;;;11.18;7.28;;;-2.00;99.90;;;;;;4974547;28;20064;-74
2023/12/11 01:24:38;;;;;;;10.52;7.00;;;-1.70;99.90;;;;;;4957255;28;20097;-75
2023/12/11 01:27:04;;;;;;;10.98;6.95;;;-2.00;99.90;;;;;;4957330;28;20066;-75
2023/12/11 01:29:30;;;;;;;16.67;7.13;;;-1.90;99.90;;;;;;4974314;28;20058;-75
2023/12/11 01:31:55;;;;;;;12.27;7.50;;;-2.10;99.90;;;;;;4957007;28;20023;-76
2023/12/11 01:34:21;;;;;;;14.15;7.43;;;-2.00;99.90;;;;;;4974481;28;20392;-75
2023/12/11 01:36:46;;;;;;;11.30;7.25;;;-2.00;99.90;;;;;;4957027;28;20023;-75
2023/12/11 01:39:13;;;;;;;10.95;6.75;;;-2.00;99.90;;;;;;4974206;28;20110;-75
2023/12/11 01:41:38;;;;;;;12.25;7.13;;;-1.90;99.90;;;;;;4957203;28;20035;-75
2023/12/11 01:44:04;;;;;;;12.18;8.75;;;-1.90;99.90;;;;;;4956770;28;20023;-75
2023/12/11 01:46:31;;;;;;;14.82;7.65;;;-1.80;99.90;;;;;;4956544;28;20030;-75
2023/12/11 01:48:57;;;;;;;11.52;7.97;;;-1.80;99.90;;;;;;4956732;28;20404;-75
2023/12/11 01:51:23;;;;;;;10.60;6.38;;;-1.80;99.90;;;;;;4973973;28;20027;-74
2023/12/11 01:53:51;;;;;;;16.17;8.60;;;-1.80;99.90;;;;;;4974060;28;20026;-75
2023/12/11 01:56:18;;;;;;;13.52;7.55;;;-1.70;99.90;;;;;;4956646;28;20041;-74
2023/12/11 01:58:45;;;;;;;10.95;6.90;;;-1.90;99.90;;;;;;4973870;28;20022;-76
2023/12/11 02:01:13;;;;;;;12.48;7.75;;;-1.30;99.90;;;;;;4956396;28;20485;-75
2023/12/11 02:03:40;;;;;;;12.98;8.15;;;-1.80;99.90;;;;;;4956106;28;20503;-75
2023/12/11 02:06:06;;;;;;;13.63;8.35;;;-1.70;99.90;;;;;;4956074;28;20031;-75
2023/12/11 02:08:32;;;;;;;12.75;7.43;;;-1.70;99.90;;;;;;4956348;28;20042;-75
2023/12/11 02:10:58;;;;;;;14.85;8.35;;;-1.60;99.90;;;;;;4956164;28;20404;-75
2023/12/11 02:13:24;;;;;;;12.98;7.78;;;-1.50;99.90;;;;;;4956150;28;20026;-75
2023/12/11 02:15:50;;;;;;;15.18;8.77;;;-1.60;99.90;;;;;;4973553;28;20034;-75
2023/12/11 02:18:16;;;;;;;11.38;7.22;;;-1.50;99.90;;;;;;4973598;28;20015;-76
2023/12/11 02:20:43;;;;;;;12.20;8.45;;;-1.50;99.90;;;;;;4973479;28;20508;-75
2023/12/11 02:23:17;;;;;;;17.17;8.07;;;-1.40;99.90;;;;;;4956054;28;20039;-75
2023/12/11 02:25:48;;;;;;;11.82;7.68;;;-1.40;99.90;;;;;;4956421;28;20081;-75
2023/12/11 02:28:14;;;;;;;13.35;8.05;;;-1.00;99.90;;;;;;4955914;28;20027;-75
2023/12/11 02:30:49;;;;;;;14.00;6.88;;;-1.40;99.90;;;;;;4955952;28;20045;-75
2023/12/11 02:33:15;;;;;;;;;;;-1.40;99.90;;;;;;4960138;28;20030;-75
2023/12/11 02:35:43;;;;;;;7.37;6.33;;;-1.50;99.90;;;;;;4975796;28;19909;-76
2023/12/11 02:38:09;;;;;;;12.02;7.18;;;-1.50;99.90;;;;;;4959374;28;20265;-75
2023/12/11 02:40:35;;;;;;;10.50;6.82;;;-1.40;99.90;;;;;;4959629;28;20073;-76
2023/12/11 02:43:00;;;;;;;10.82;6.63;;;-1.40;99.90;;;;;;4959647;28;20035;-76
2023/12/11 02:45:26;;;;;;;10.98;7.78;;;-1.40;99.90;;;;;;4960128;28;20035;-75
2023/12/11 02:47:52;;;;;;;12.85;7.20;;;-1.30;99.90;;;;;;4976695;28;20058;-75
2023/12/11 02:50:17;;;;;;;14.18;7.18;;;-1.30;99.90;;;;;;4959623;28;20061;-76
2023/12/11 02:52:43;;;;;;;10.07;6.88;;;-1.20;99.90;;;;;;4959470;28;20162;-75
2023/12/11 02:55:09;;;;;;;16.35;8.48;;;-1.20;99.90;;;;;;4976568;28;20026;-76
2023/12/11 02:57:34;;;;;;;16.73;7.32;;;-0.80;99.90;;;;;;4976398;28;20026;-75
2023/12/11 03:00:00;;;;;;;10.27;7.63;;;-1.10;99.90;;;;;;4959397;28;20408;-75
2023/12/11 03:02:25;;;;;;;9.63;6.60;;;-1.10;99.90;;;;;;4959299;28;20416;-75
2023/12/11 03:04:51;;;;;;;16.00;8.45;;;-1.10;99.90;;;;;;4959218;28;20562;-76
2023/12/11 03:07:17;;;;;;;10.82;7.38;;;-1.00;99.90;;;;;;4958923;28;20447;-76
2023/12/11 03:09:42;;;;;;;9.38;6.35;;;-0.90;99.90;;;;;;4976335;28;20496;-75
2023/12/11 03:12:08;;;;;;;8.88;6.28;;;-0.90;99.90;;;;;;4958964;28;20508;-75
2023/12/11 03:14:34;;;;;;;13.13;8.00;;;-0.90;99.90;;;;;;4976308;28;20028;-76
2023/12/11 03:16:59;;;;;;;10.85;8.05;;;-0.90;99.90;;;;;;4975992;28;20030;-75
2023/12/11 03:19:25;;;;;;;15.43;8.07;;;-0.80;99.90;;;;;;4959025;28;20119;-76
2023/12/11 03:21:51;;;;;;;13.65;7.47;;;-0.80;99.90;;;;;;4958902;28;20038;-75
2023/12/11 03:24:17;;;;;;;13.13;6.50;;;-0.70;99.90;;;;;;4958754;28;20563;-76
2023/12/11 03:26:42;;;;;;;9.88;7.25;;;-0.60;99.90;;;;;;4958704;28;20066;-74
2023/12/11 03:29:08;;;;;;;13.23;7.40;;;-0.60;99.90;;;;;;4976108;28;20034;-75
2023/12/11 03:31:34;;;;;;;15.27;8.25;;;-0.60;99.90;;;;;;4958527;28;20034;-76
2023/12/11 03:33:59;;;;;;;11.52;7.72;;;-0.50;99.90;;;;;;4975949;28;20085;-75
2023/12/11 03:36:25;;;;;;;11.82;7.15;;;-0.70;99.90;;;;;;4958267;28;20031;-75
2023/12/11 03:38:50;;;;;;;11.48;7.30;;;-0.80;99.90;;;;;;4958573;28;20546;-75
2023/12/11 03:41:16;;;;;;;11.70;7.97;;;-0.90;99.90;;;;;;4958633;28;20444;-75
2023/12/11 03:43:42;;;;;;;13.45;8.48;;;-0.80;99.90;;;;;;4958353;28;20405;-75
2023/12/11 03:46:08;;;;;;;14.07;7.88;;;-0.80;99.90;;;;;;4960369;28;20082;-75
2023/12/11 03:48:33;;;;;;;13.05;7.85;;;-0.80;99.90;;;;;;4962098;28;20031;-76
2023/12/11 03:50:59;;;;;;;10.88;7.72;;;-0.90;99.90;;;;;;4979856;28;20030;-76
2023/12/11 03:53:25;;;;;;;12.48;7.38;;;-0.90;99.90;;;;;;4962359;28;20123;-75
2023/12/11 03:55:52;;;;;;;14.52;7.75;;;-0.80;99.90;;;;;;4961714;28;20023;-76
2023/12/11 03:58:18;;;;;;;12.63;7.35;;;-0.80;99.90;;;;;;4964668;28;20063;-75
2023/12/11 04:00:44;;;;;;;13.50;6.88;;;-0.70;99.90;;;;;;4985166;28;20035;-76
2023/12/11 04:03:10;;;;;;;13.50;7.15;;;-0.70;99.90;;;;;;4985591;28;20031;-76
2023/12/11 04:05:36;;;;;;;16.20;7.82;;;-0.70;99.90;;;;;;4985710;28;20110;-75
2023/12/11 04:08:01;;;;;;;15.05;7.82;;;-0.50;99.90;;;;;;4966984;28;20026;-75
2023/12/11 04:10:27;;;;;;;12.18;8.18;;;-0.60;99.90;;;;;;4961031;28;20031;-75
2023/12/11 04:12:53;;;;;;;10.90;7.32;;;-0.70;99.90;;;;;;4975387;28;20023;-75
2023/12/11 04:15:18;;;;;;;13.35;7.65;;;-0.70;99.90;;;;;;4959212;28;20030;-75
2023/12/11 04:17:44;;;;;;;15.65;8.15;;;-0.60;99.90;;;;;;4957816;28;20019;-75
2023/12/11 04:20:10;;;;;;;10.48;7.15;;;-0.60;99.90;;;;;;4975540;28;20037;-75
2023/12/11 04:22:36;;;;;;;10.07;7.40;;;-0.60;99.90;;;;;;4957968;28;20038;-75
2023/12/11 04:25:01;;;;;;;11.75;7.68;;;-0.60;99.90;;;;;;4975406;28;20033;-75
2023/12/11 04:27:27;;;;;;;13.57;7.03;;;-0.50;99.90;;;;;;4975216;28;20122;-75
2023/12/11 04:29:53;;;;;;;12.18;7.47;;;-0.50;99.90;;;;;;4958157;28;20112;-75
2023/12/11 04:32:19;;;;;;;13.55;6.85;;;-0.50;99.90;;;;;;4958008;28;20027;-75
2023/12/11 04:34:44;;;;;;;12.27;7.85;;;-0.50;99.90;;;;;;4975109;28;20023;-75
2023/12/11 04:37:10;;;;;;;11.50;7.05;;;-0.60;99.90;;;;;;4957377;28;20034;-76
2023/12/11 04:39:36;;;;;;;16.33;7.28;;;-0.50;99.90;;;;;;4975119;28;20026;-75
2023/12/11 04:42:01;;;;;;;12.02;6.63;;;-0.40;99.90;;;;;;4973533;28;20023;-76
2023/12/11 04:44:27;;;;;;;15.45;8.20;;;-0.40;99.90;;;;;;4974866;28;20481;-75
2023/12/11 04:46:53;;;;;;;19.13;9.38;;;-0.40;99.90;;;;;;4974608;28;20442;-75
2023/12/11 04:49:18;;;;;;;19.63;9.60;;;-0.40;99.90;;;;;;4957416;28;20121;-75
2023/12/11 04:51:44;;;;;;;23.63;9.73;;;-0.40;99.90;;;;;;4974621;28;20374;-75
2023/12/11 04:54:09;;;;;;;22.80;9.70;;;-0.30;99.90;;;;;;4974175;28;20097;-75
2023/12/11 04:56:35;;;;;;;15.98;8.05;;;-0.20;99.90;;;;;;4974427;28;20425;-75
2023/12/11 04:59:01;;;;;;;16.40;8.45;;;-0.20;99.90;;;;;;4957304;28;20443;-75
2023/12/11 05:01:27;;;;;;;16.70;8.27;;;-0.20;99.90;;;;;;4957298;28;20031;-76
2023/12/11 05:03:53;;;;;;;15.90;7.38;;;-0.20;99.90;;;;;;4974344;28;20068;-75
2023/12/11 05:06:19;;;;;;;13.10;6.57;;;-0.20;99.90;;;;;;4956809;28;20022;-76
2023/12/11 05:08:45;;;;;;;14.57;6.47;;;-0.20;99.90;;;;;;4956844;28;20043;-75
2023/12/11 05:11:11;;;;;;;10.88;6.45;;;-0.10;99.90;;;;;;4974309;28;20035;-75
2023/12/11 05:13:37;;;;;;;16.77;8.65;;;-0.20;99.90;;;;;;4956888;28;20023;-76
2023/12/11 05:16:03;;;;;;;10.55;6.22;;;-0.30;99.90;;;;;;4956636;28;20019;-75
2023/12/11 05:18:28;;;;;;;11.25;7.25;;;-0.20;99.90;;;;;;4957032;28;20507;-75
2023/12/11 05:20:54;;;;;;;9.75;7.25;;;-0.20;99.90;;;;;;4974315;28;20034;-75
2023/12/11 05:23:19;;;;;;;13.05;7.28;;;-0.20;99.90;;;;;;5015319;23;20455;-77
2023/12/11 05:25:45;;;;;;;10.38;6.78;;;-0.10;99.90;;;;;;5013961;28;20538;-77
2023/12/11 05:28:11;;;;;;;9.88;6.43;;;-0.10;99.90;;;;;;5013700;28;20022;-76
2023/12/11 05:30:36;;;;;;;12.85;7.03;;;-0.10;99.90;;;;;;5015013;28;20042;-77
2023/12/11 05:33:02;;;;;;;10.48;7.07;;;-0.10;99.90;;;;;;5004386;28;20173;-77
2023/12/11 05:35:28;;;;;;;10.90;7.18;;;-0.10;99.90;;;;;;4994672;28;20015;-77
2023/12/11 05:37:56;;;;;;;11.63;6.25;;;0.00;99.90;;;;;;4976996;28;20026;-77
2023/12/11 05:40:21;;;;;;;18.63;7.78;;;0.00;99.90;;;;;;4976986;28;20030;-77
2023/12/11 05:42:47;;;;;;;17.90;8.48;;;0.00;99.90;;;;;;4994509;28;20068;-77
2023/12/11 05:45:12;;;;;;;20.40;9.43;;;0.00;99.90;;;;;;4976913;28;20026;-77
2023/12/11 05:47:38;;;;;;;23.23;9.20;;;0.10;99.90;;;;;;4993960;28;20046;-77
2023/12/11 05:50:04;;;;;;;17.23;9.05;;;0.10;99.90;;;;;;4976964;28;20054;-77
2023/12/11 05:52:30;;;;;;;13.40;6.32;;;0.10;99.90;;;;;;4994298;28;20022;-77
2023/12/11 05:54:55;;;;;;;13.15;6.35;;;0.10;99.90;;;;;;4994318;28;20028;-76
2023/12/11 05:57:21;;;;;;;9.23;5.90;;;0.10;99.90;;;;;;4994021;28;20488;-77
2023/12/11 05:59:47;;;;;;;14.93;8.25;;;0.10;99.90;;;;;;4994534;28;20033;-79
2023/12/11 06:02:13;;;;;;;15.45;9.63;;;0.00;99.90;;;;;;4994512;28;20025;-77
2023/12/11 06:04:38;;;;;;;14.43;8.20;;;0.00;99.90;;;;;;4996552;28;20053;-77
2023/12/11 06:07:04;;;;;;;12.40;7.57;;;0.10;99.90;;;;;;4993758;28;20026;-77
2023/12/11 06:09:31;;;;;;;13.27;6.85;;;0.10;99.90;;;;;;4976484;28;20027;-77
2023/12/11 06:11:56;;;;;;;13.10;7.20;;;-0.10;99.90;;;;;;4993814;28;20030;-77
2023/12/11 06:14:23;;;;;;;21.88;10.93;;;0.00;99.90;;;;;;4993821;28;20026;-77
2023/12/11 06:16:49;;;;;;;20.65;9.10;;;0.00;99.90;;;;;;4993314;28;20399;-77
2023/12/11 06:19:14;;;;;;;11.65;7.40;;;1.00;99.90;;;;;;4972979;28;20034;-76
2023/12/11 06:21:40;;;;;;;13.90;7.20;;;0.60;99.90;;;;;;4968534;28;20042;-76
2023/12/11 06:24:07;;;;;;;13.82;7.82;;;0.40;99.90;;;;;;4956306;28;20041;-76
2023/12/11 06:26:34;;;;;;;10.10;5.80;;;0.30;99.90;;;;;;4956541;28;20121;-77
2023/12/11 06:29:00;;;;;;;8.43;5.45;;;0.00;99.90;;;;;;4957082;28;20033;-76
2023/12/11 06:31:28;;;;;;;8.98;5.78;;;0.10;99.90;;;;;;4955956;28;20115;-76
2023/12/11 06:33:54;;;;;;;11.10;5.47;;;0.00;99.90;;;;;;4956005;28;20091;-76
2023/12/11 06:36:21;;;;;;;11.35;4.97;;;0.00;99.90;;;;;;4973011;28;20077;-76
2023/12/11 06:38:50;;;;;;;13.23;5.65;;;-0.10;99.90;;;;;;4973622;28;20053;-76
2023/12/11 06:41:17;;;;;;;16.45;6.03;;;-0.10;99.90;;;;;;4973912;28;20501;-76
2023/12/11 06:43:46;;;;;;;11.50;5.97;;;-0.20;99.90;;;;;;4957159;28;20406;-76
2023/12/11 06:46:12;;;;;;;8.85;4.95;;;-0.20;99.90;;;;;;4972694;28;20611;-76
2023/12/11 06:48:37;;;;;;;9.45;5.60;;;-0.20;99.90;;;;;;4971980;28;20028;-76
2023/12/11 06:51:03;;;;;;;12.80;5.10;;;-0.20;99.90;;;;;;4955160;28;20031;-76
2023/12/11 06:53:30;;;;;;;10.10;5.50;;;-0.20;99.90;;;;;;4972396;28;20026;-76
2023/12/11 06:55:55;;;;;;;8.90;5.43;;;-0.20;99.90;;;;;;4972289;28;20026;-76
2023/12/11 06:58:21;;;;;;;9.48;5.50;;;-0.30;99.90;;;;;;4972679;28;20115;-76
2023/12/11 07:00:47;;;;;;;15.68;8.32;;;-0.20;99.90;;;;;;4972742;28;20496;-77
2023/12/11 07:03:13;;;;;;;11.38;5.95;;;-0.30;99.90;;;;;;4972607;28;20027;-76
2023/12/11 07:05:43;;;;;;;15.40;5.97;;;-0.20;99.90;;;;;;4955043;28;20027;-76
2023/12/11 07:08:09;;;;;;;10.45;6.00;;;-0.20;99.90;;;;;;4972392;28;20047;-76
2023/12/11 07:10:35;;;;;;;15.07;8.50;;;-0.20;99.90;;;;;;4960570;28;20062;-76
2023/12/11 07:13:01;;;;;;;15.13;7.57;;;-0.20;99.90;;;;;;4991928;28;20018;-76
2023/12/11 07:15:26;;;;;;;10.82;6.97;;;-0.10;99.90;;;;;;4992333;28;20397;-76
2023/12/11 07:17:52;;;;;;;11.27;5.65;;;-0.10;99.90;;;;;;4992836;28;20077;-76
2023/12/11 07:20:18;;;;;;;8.50;6.07;;;-0.10;99.90;;;;;;4979753;28;20109;-77
2023/12/11 07:22:45;;;;;;;14.60;6.35;;;-0.10;99.90;;;;;;4960360;28;20038;-77
2023/12/11 07:25:12;;;;;;;14.80;7.07;;;0.00;99.90;;;;;;4960556;28;20027;-77
2023/12/11 07:27:41;;;;;;;10.55;7.40;;;-0.10;99.90;;;;;;4977685;28;20026;-77
2023/12/11 07:30:07;;;;;;;15.88;7.07;;;-0.10;99.90;;;;;;4977627;28;20097;-77
2023/12/11 07:32:32;;;;;;;8.40;6.25;;;-0.10;99.90;;;;;;4960144;28;20025;-77
2023/12/11 07:35:00;;;;;;;13.32;7.63;;;-0.10;99.90;;;;;;4977167;28;20094;-77
2023/12/11 07:37:25;;;;;;;12.00;7.85;;;0.00;99.90;;;;;;4959789;28;20086;-77
2023/12/11 07:39:51;;;;;;;23.75;11.43;;;0.00;99.90;;;;;;4959959;28;20034;-77
2023/12/11 07:42:17;;;;;;;17.10;8.68;;;-0.10;99.90;;;;;;4977263;28;20054;-77
2023/12/11 07:44:42;;;;;;;12.45;7.05;;;0.00;99.90;;;;;;4959563;28;20027;-77
2023/12/11 07:47:08;;;;;;;10.80;7.40;;;-0.10;99.90;;;;;;4977049;28;20137;-77
2023/12/11 07:49:34;;;;;;;16.52;7.85;;;-0.20;99.90;;;;;;4959633;28;20030;-77
2023/12/11 07:52:01;;;;;;;14.93;7.15;;;1.80;99.90;;;;;;4960118;28;20030;-77
2023/12/11 07:54:27;;;;;;;13.88;7.15;;;1.40;99.90;;;;;;4977364;28;20030;-77
2023/12/11 07:56:53;;;;;;;17.27;8.27;;;1.00;99.90;;;;;;4976528;28;20015;-77
2023/12/11 07:59:18;;;;;;;12.32;7.93;;;0.60;99.90;;;;;;4959670;28;20022;-78
2023/12/11 08:01:44;;;;;;;12.68;8.43;;;0.40;99.90;;;;;;4959460;28;20037;-76
2023/12/11 08:04:10;;;;;;;13.65;7.68;;;0.20;99.90;;;;;;4975550;28;20031;-77
2023/12/11 08:06:42;;;;;;;14.68;7.88;;;0.30;99.90;;;;;;4957742;28;20026;-76
2023/12/11 08:09:08;;;;;;;11.10;7.80;;;0.20;99.90;;;;;;4975165;28;20031;-76
2023/12/11 08:11:34;;;;;;;21.35;8.63;;;0.20;99.90;;;;;;4975220;28;20038;-76
2023/12/11 08:14:00;;;;;;;15.98;7.38;;;0.10;99.90;;;;;;4975393;28;20027;-76
2023/12/11 08:16:25;;;;;;;16.80;8.23;;;0.20;99.90;;;;;;4957660;28;20481;-76
2023/12/11 08:18:51;;;;;;;20.40;13.00;;;0.20;99.90;;;;;;4957880;28;20031;-76
2023/12/11 08:21:17;;;;;;;17.48;10.55;;;0.20;99.90;;;;;;4974938;28;20105;-77
2023/12/11 08:23:44;;;;;;;15.75;8.63;;;0.20;99.90;;;;;;4957624;28;20489;-76
2023/12/11 08:26:19;;;;;;;12.95;8.30;;;0.20;99.90;;;;;;4974781;28;20085;-77
2023/12/11 08:28:46;;;;;;;18.38;9.13;;;0.30;99.90;;;;;;4977565;28;20106;-76
2023/12/11 08:31:12;;;;;;;21.23;8.70;;;0.40;99.90;;;;;;4974621;28;20030;-76
2023/12/11 08:33:38;;;;;;;10.85;7.20;;;0.50;99.90;;;;;;4974703;28;20469;-75
2023/12/11 08:36:05;;;;;;;20.40;7.65;;;0.50;99.90;;;;;;4957266;28;20022;-76
2023/12/11 08:38:30;;;;;;;11.90;7.53;;;0.60;99.90;;;;;;4957373;28;20437;-76
2023/12/11 08:40:57;;;;;;;12.63;7.00;;;0.70;99.90;;;;;;4974814;28;20105;-75
2023/12/11 08:43:23;;;;;;;15.98;8.27;;;0.80;99.90;;;;;;4957199;28;20420;-76
2023/12/11 08:45:49;;;;;;;12.48;7.03;;;0.90;99.90;;;;;;4957282;28;20038;-75
2023/12/11 08:48:14;;;;;;;14.50;7.40;;;1.00;99.90;;;;;;4974214;28;20031;-75
2023/12/11 08:50:40;;;;;;;17.02;7.97;;;1.10;99.90;;;;;;4957148;28;20030;-76
2023/12/11 08:53:06;;;;;;;20.52;8.25;;;1.20;99.90;;;;;;4974368;28;20029;-76
2023/12/11 08:55:32;;;;;;;17.15;8.30;;;1.20;99.90;;;;;;4957061;28;20081;-77
2023/12/11 08:57:58;;;;;;;17.35;8.30;;;1.20;99.90;;;;;;4974189;28;20077;-76
2023/12/11 09:00:24;;;;;;;18.42;8.68;;;1.30;99.90;;;;;;4974418;28;20031;-77
2023/12/11 09:02:51;;;;;;;19.15;9.65;;;1.30;99.90;;;;;;4974274;28;20023;-77
2023/12/11 09:05:17;;;;;;;14.80;9.32;;;1.30;99.90;;;;;;4957054;28;20397;-77
2023/12/11 09:07:42;;;;;;;12.88;7.65;;;1.40;99.90;;;;;;4973965;28;20027;-77
2023/12/11 09:10:09;;;;;;;16.30;8.98;;;1.40;99.90;;;;;;4956975;28;20031;-76
2023/12/11 09:12:36;;;;;;;10.65;7.13;;;1.40;99.90;;;;;;4956603;28;20041;-76
2023/12/11 09:15:03;;;;;;;10.23;6.45;;;1.50;99.90;;;;;;4974088;28;20026;-76
2023/12/11 09:17:29;;;;;;;11.57;7.32;;;1.50;99.90;;;;;;4974023;28;20034;-77
2023/12/11 09:19:55;;;;;;;20.45;8.80;;;1.60;99.90;;;;;;4956746;28;20023;-76
2023/12/11 09:22:20;;;;;;;10.63;6.90;;;1.60;99.90;;;;;;4973713;28;20027;-75
2023/12/11 09:24:46;;;;;;;14.07;8.38;;;1.70;99.90;;;;;;4959920;28;20090;-79
2023/12/11 09:27:12;;;;;;;16.98;9.02;;;1.70;99.90;;;;;;4978510;28;20474;-76
2023/12/11 09:29:37;;;;;;;13.30;8.88;;;1.80;99.90;;;;;;4984843;28;20102;-77
2023/12/11 09:32:03;;;;;;;20.90;9.10;;;1.90;99.90;;;;;;4979835;28;20034;-76
2023/12/11 09:34:29;;;;;;;16.23;9.07;;;2.00;99.90;;;;;;4956433;28;20554;-76
2023/12/11 09:36:55;;;;;;;15.63;9.02;;;2.20;99.90;;;;;;4973410;28;20046;-76
2023/12/11 09:39:22;;;;;;;12.70;7.95;;;2.30;99.90;;;;;;4957430;28;20054;-76
2023/12/11 09:41:48;;;;;;;10.40;7.22;;;2.50;99.90;;;;;;4956107;28;20035;-77
2023/12/11 09:44:16;;;;;;;9.40;5.47;;;2.60;99.90;;;;;;4957661;28;20570;-77
2023/12/11 09:46:50;;;;;;;9.82;5.38;;;2.60;99.90;;;;;;4973187;28;20026;-77
2023/12/11 09:49:17;;;;;;;8.75;5.85;;;2.60;99.90;;;;;;4956203;28;20031;-76
2023/12/11 09:51:42;;;;;;;13.07;6.35;;;2.60;99.90;;;;;;4973444;28;20026;-76
2023/12/11 09:54:08;;;;;;;9.90;6.93;;;2.80;99.90;;;;;;4956241;28;20022;-77
2023/12/11 09:56:35;;;;;;;9.38;6.85;;;2.90;99.90;;;;;;4955927;28;20493;-74
2023/12/11 09:59:03;;;;;;;11.45;8.00;;;3.00;99.90;;;;;;4973261;28;20026;-74
2023/12/11 10:01:29;;;;;;;19.55;8.23;;;3.00;99.90;;;;;;4973287;28;20038;-74
2023/12/11 10:03:55;;;;;;;11.88;7.97;;;2.90;99.90;;;;;;4955812;28;20031;-73
2023/12/11 10:06:23;;;;;;;10.57;6.18;;;3.00;99.90;;;;;;4955890;28;20548;-77
2023/12/11 10:08:52;;;;;;;13.50;8.60;;;3.40;99.90;;;;;;4955392;28;20027;-76
2023/12/11 10:11:19;;;;;;;16.70;11.13;;;4.60;99.90;;;;;;4972693;28;20573;-76
2023/12/11 10:13:45;;;;;;;17.55;10.60;;;5.00;99.90;;;;;;4972775;28;20037;-76
2023/12/11 10:16:31;;;;;;;73.05;32.40;;;5.20;99.90;;;;;;4972782;28;20019;-76
2023/12/11 10:18:57;;;;;;;25.42;17.25;;;5.20;99.90;;;;;;4955542;28;20046;-76
2023/12/11 10:21:27;;;;;;;17.38;8.23;;;4.80;99.90;;;;;;4955969;28;20031;-76
2023/12/11 10:24:13;;;;;;;8.52;5.57;;;4.30;99.90;;;;;;4955887;28;20038;-76
2023/12/11 10:26:43;;;;;;;;;;;4.10;99.90;;;;;;4955900;28;20035;-76
2023/12/11 10:29:21;;;;;;;12.38;5.30;;;4.20;99.90;;;;;;4955817;28;20008;-76
2023/12/11 10:31:47;;;;;;;8.27;5.30;;;4.20;99.90;;;;;;4955941;28;20089;-76
2023/12/11 10:34:13;;;;;;;8.73;5.75;;;4.20;99.90;;;;;;4983687;28;20106;-77
2023/12/11 10:36:52;;;;;;;9.68;6.05;;;4.20;99.90;;;;;;4970955;28;20110;-76
2023/12/11 10:39:19;;;;;;;10.10;5.65;;;4.30;99.90;;;;;;4989710;28;20081;-76
2023/12/11 10:41:45;;;;;;;11.52;7.45;;;4.50;99.90;;;;;;4991803;28;20029;-77
2023/12/11 10:44:27;;;;;;;11.85;7.68;;;4.50;99.90;;;;;;4974102;28;20042;-76
2023/12/11 10:46:57;;;;;;;17.00;7.20;;;4.60;99.90;;;;;;4990644;28;20030;-77
2023/12/11 10:49:23;;;;;;;15.93;6.95;;;4.60;99.90;;;;;;4974577;28;20559;-76
2023/12/11 10:51:50;;;;;;;7.57;5.65;;;4.70;99.90;;;;;;4992198;28;20031;-77
2023/12/11 10:54:16;;;;;;;9.02;5.47;;;4.70;99.90;;;;;;4978308;28;20018;-77
2023/12/11 10:56:45;;;;;;;12.07;6.32;;;4.80;99.90;;;;;;4995832;28;20106;-76
2023/12/11 10:59:11;;;;;;;7.28;5.40;;;4.90;99.90;;;;;;4995970;28;20041;-76
2023/12/11 11:01:41;;;;;;;9.00;6.20;;;4.90;99.90;;;;;;4978518;28;20111;-77
2023/12/11 11:04:08;;;;;;;13.43;6.68;;;5.90;99.90;;;;;;4995844;28;20435;-76
2023/12/11 11:06:38;;;;;;;9.30;7.07;;;5.40;99.90;;;;;;4978695;28;20030;-76
2023/12/11 11:09:11;;;;;;;12.13;8.20;;;5.40;99.90;;;;;;4995774;28;20029;-76
2023/12/11 11:11:45;;;;;;;8.20;5.35;;;5.50;99.90;;;;;;4995694;28;20027;-76
2023/12/11 11:14:14;;;;;;;11.10;4.97;;;5.30;99.90;;;;;;4995655;28;20492;-76
2023/12/11 11:16:54;;;;;;;6.93;3.45;;;5.20;99.90;;;;;;4995498;28;20026;-77
2023/12/11 11:19:20;;;;;;;9.40;4.15;;;4.80;99.90;;;;;;4995551;28;20027;-75
2023/12/11 11:24:37;;;;;;;13.18;6.28;;;5.50;99.90;;;;;;4993956;23;20055;-75
2023/12/11 11:27:04;;;;;;;11.13;7.13;;;5.60;99.90;;;;;;4974782;28;20077;-75
2023/12/11 11:29:40;;;;;;;8.25;6.72;;;5.50;99.90;;;;;;4958558;28;20027;-75
2023/12/11 11:32:06;;;;;;;8.27;5.57;;;5.40;99.90;;;;;;4958951;28;20033;-75
2023/12/11 11:34:41;;;;;;;9.57;5.18;;;5.20;99.90;;;;;;4958620;28;20023;-75
2023/12/11 11:37:07;;;;;;;13.85;6.28;;;5.00;99.90;;;;;;4975594;28;20069;-76
2023/12/11 11:39:58;;;;;;;9.43;6.82;;;4.80;99.90;;;;;;4975785;28;20102;-75
2023/12/11 11:42:28;;;;;;;8.55;5.60;;;4.70;99.90;;;;;;4958456;28;20591;-75
2023/12/11 11:44:59;;;;;;;14.82;5.28;;;4.60;99.90;;;;;;4975901;28;20109;-75
2023/12/11 11:47:29;;;;;;;15.32;7.50;;;4.60;99.90;;;;;;4958084;28;20042;-77
2023/12/11 11:50:10;;;;;;;10.18;6.45;;;4.70;99.90;;;;;;4958179;28;20599;-76
2023/12/11 11:52:38;;;;;;;12.93;6.93;;;4.70;99.90;;;;;;4958305;28;20034;-75
2023/12/11 11:55:26;;;;;;;14.30;8.23;;;4.80;99.90;;;;;;4975622;28;20019;-76
2023/12/11 11:57:52;;;;;;;12.90;6.60;;;4.80;99.90;;;;;;4958105;28;20027;-75
2023/12/11 12:00:22;;;;;;;30.10;15.13;;;4.70;99.90;;;;;;4958382;28;20066;-76
2023/12/11 12:02:59;;;;;;;52.92;24.63;;;4.70;99.90;;;;;;4975307;28;20023;-76
2023/12/11 12:05:26;;;;;;;27.75;14.65;;;4.90;99.90;;;;;;4975216;28;20110;-76
2023/12/11 12:07:52;;;;;;;18.15;9.43;;;5.00;99.90;;;;;;4975244;28;20045;-76
2023/12/11 12:10:18;;;;;;;13.82;7.65;;;5.50;99.90;;;;;;4975338;28;20050;-76
2023/12/11 12:12:49;;;;;;;14.20;5.80;;;5.10;99.90;;;;;;4958228;28;20449;-76
2023/12/11 12:15:16;;;;;;;9.23;5.72;;;5.10;99.90;;;;;;4960182;28;20169;-76
2023/12/11 12:17:42;;;;;;;10.60;5.90;;;5.00;99.90;;;;;;4958934;28;20026;-76
2023/12/11 12:20:16;;;;;;;13.93;6.53;;;5.00;99.90;;;;;;4977343;28;20493;-76
2023/12/11 12:23:20;;;;;;;18.15;6.90;;;4.90;99.90;;;;;;4979846;28;20037;-76
2023/12/11 12:25:51;;;;;;;10.80;6.13;;;4.90;99.90;;;;;;4883767;29;20523;-76
2023/12/11 12:28:17;;;;;;;11.27;5.70;;;4.90;99.90;;;;;;4883075;29;20033;-76
2023/12/11 12:30:43;;;;;;;21.77;6.75;;;4.80;99.90;;;;;;4931466;28;20043;-75
2023/12/11 12:33:11;;;;;;;13.15;6.68;;;4.70;99.90;;;;;;4977398;28;20018;-75
2023/12/11 12:35:38;;;;;;;18.48;6.50;;;4.70;99.90;;;;;;4975105;28;20497;-75
2023/12/11 12:38:05;;;;;;;11.45;5.75;;;4.60;99.90;;;;;;4974919;28;20027;-75
2023/12/11 12:40:34;;;;;;;12.68;6.60;;;4.70;99.90;;;;;;4957172;28;20023;-75
2023/12/11 12:43:11;;;;;;;6.60;4.18;;;4.70;99.90;;;;;;4957147;28;20058;-75
2023/12/11 12:45:37;;;;;;;8.85;4.85;;;4.70;99.90;;;;;;4974639;28;20031;-75